Archival Weather

Yakutsk

Yakutsk, Russia (UEEE)

Report from: Monday, February 6, 2023 11:00 AM JST
Current time: Tuesday, July 16, 2024 6:03 PM JST

Current weather – Weather history – Daily summaries
Weather forecast

Present weatherMist
Temperature-40.0°C (-40.0°F)
Dew point-44.0°C (-47.2°F)
Winds 1.9 kts (1 m/s, 2.2 mph) West-Northwest (300°)
Visibility1.2 mi. (1.9 km)
Altimeter30.24 in.Hg (1024 mB)
Precip. events QF 1:39 PM
Relative humidity65 %
Density altitude-7,778 ft. (-2,371 m)
Remarks No significant changes expected in the next two hours
Flight conditions Instrument Meteorological Conditions
Raw dataUEEE 060200Z 30001MPS 1900 1000NE R23L/1000N BR NSC M40/M44 Q1024 R23L/490150 NOSIG RMK QFE759
An error has occurred. This application may no longer respond until reloaded. Reload 🗙